Terminal Aerodrome Forecast
Issued by NWS

Home | Current Version | Previous Version | Text Only | Print | Product List | Glossary On
Versions: 1 2 3 4 5 6 7 8 9 10 11 12
562
FTUS45 KVEF 251120
TAFVGT
TAF
KVGT 251120Z 2512/2612 32007KT P6SM BKN150
     FM251600 14007KT P6SM SCT150
     FM260000 22011KT P6SM SCT150
     FM261100 36006KT P6SM SKC=

USA.gov is the U.S. government's official web portal to all federal, state and local government web resources and services.